Time;durP1;ratioP1;P1;durP2;ratioP2;P2;SDS_P1;SDS_P2;PMS_P1;PMS_P2;Temp;Humidity;BMP_temperature;BMP_pressure;BME280_temperature;BME280_humidity;BME280_pressure;Samples;Min_cycle;Max_cycle;Signal;HPM_P1;HPM_P2
2022/11/19 00:00:04;;;;;;;446.25;164.70;;;;;;;11.00;100.00;98493.25;343467;28;1334;-78
2022/11/19 00:00:15;;;;;;;442.07;163.50;;;;;;;10.98;100.00;98495.13;343407;28;1225;-77
2022/11/19 00:00:27;;;;;;;440.98;164.77;;;;;;;10.99;100.00;98497.66;344652;28;1096;-78
2022/11/19 00:00:38;;;;;;;440.05;165.25;;;;;;;11.00;100.00;98494.09;342323;28;980;-78
2022/11/19 00:00:48;;;;;;;437.10;167.67;;;;;;;11.01;100.00;98494.94;343413;28;1209;-77
2022/11/19 00:01:05;;;;;;;438.27;167.35;;;;;;;11.03;100.00;98487.00;341399;28;1213;-77
2022/11/19 00:01:26;;;;;;;428.95;157.18;;;;;;;11.04;100.00;98488.69;341657;28;1119;-78
2022/11/19 00:01:36;;;;;;;415.67;155.70;;;;;;;11.04;100.00;98488.69;340915;29;945;-77
2022/11/19 00:01:47;;;;;;;419.73;159.57;;;;;;;11.05;100.00;98485.13;341292;28;1387;-77
2022/11/19 00:01:57;;;;;;;430.35;163.85;;;;;;;11.05;100.00;98487.75;339891;29;1193;-77
2022/11/19 00:02:07;;;;;;;436.83;165.93;;;;;;;11.04;100.00;98488.69;342257;28;1193;-78
2022/11/19 00:02:18;;;;;;;440.53;165.83;;;;;;;11.01;100.00;98487.09;340893;28;1145;-78
2022/11/19 00:02:28;;;;;;;436.60;163.15;;;;;;;11.01;100.00;98476.63;338182;29;1363;-78
2022/11/19 00:02:39;;;;;;;437.90;161.33;;;;;;;11.00;100.00;98481.00;338230;29;1257;-78
2022/11/19 00:02:53;;;;;;;432.17;160.18;;;;;;;11.03;100.00;98479.13;339455;29;1419;-78
2022/11/19 00:03:03;;;;;;;430.50;159.93;;;;;;;11.00;100.00;98478.38;336989;29;1258;-77
2022/11/19 00:03:14;;;;;;;434.57;161.10;;;;;;;11.00;100.00;98485.41;336369;29;969;-77
2022/11/19 00:03:29;;;;;;;437.45;159.27;;;;;;;11.00;100.00;98477.53;339627;29;1003;-77
2022/11/19 00:03:39;;;;;;;437.63;156.27;;;;;;;11.02;100.00;98480.06;335652;29;1287;-77
2022/11/19 00:03:50;;;;;;;437.02;160.50;;;;;;;11.01;100.00;98476.63;337011;29;811;-76
2022/11/19 00:04:00;;;;;;;434.27;161.87;;;;;;;11.03;100.00;98481.75;340283;29;1318;-77
2022/11/19 00:04:11;;;;;;;433.67;163.93;;;;;;;11.01;100.00;98481.84;337433;29;1371;-77
2022/11/19 00:04:22;;;;;;;433.67;166.47;;;;;;;11.03;100.00;98479.97;331809;29;1474;-78
2022/11/19 00:04:32;;;;;;;441.30;170.45;;;;;;;11.04;100.00;98483.44;333277;29;1386;-79
2022/11/19 00:04:42;;;;;;;435.77;168.35;;;;;;;11.04;100.00;98478.19;331177;29;1506;-77
2022/11/19 00:04:53;;;;;;;435.47;167.83;;;;;;;11.05;100.00;98479.88;330541;29;1916;-78
2022/11/19 00:05:03;;;;;;;432.05;166.75;;;;;;;11.04;100.00;98472.97;335380;29;1585;-77
2022/11/19 00:05:14;;;;;;;434.20;168.80;;;;;;;11.03;100.00;98471.28;332895;29;1344;-77
2022/11/19 00:05:24;;;;;;;429.95;164.90;;;;;;;11.05;100.00;98479.88;332979;29;1405;-78
2022/11/19 00:05:46;;;;;;;430.17;165.50;;;;;;;11.05;100.00;98479.88;331672;29;3276;-76
2022/11/19 00:06:03;;;;;;;428.23;166.90;;;;;;;11.05;100.00;98477.25;333504;29;1366;-79
2022/11/19 00:06:15;;;;;;;429.38;161.88;;;;;;;11.04;100.00;98479.03;331683;29;3768;-77
2022/11/19 00:06:26;;;;;;;430.17;156.63;;;;;;;11.04;100.00;98479.03;328527;30;1772;-77
2022/11/19 00:06:36;;;;;;;424.80;156.73;;;;;;;11.05;100.00;98479.88;323337;30;1194;-77
2022/11/19 00:06:47;;;;;;;423.37;161.23;;;;;;;11.05;100.00;98474.66;326573;29;1703;-78
2022/11/19 00:06:58;;;;;;;424.92;161.35;;;;;;;11.04;100.00;98475.59;327257;29;1983;-78
2022/11/19 00:07:09;;;;;;;426.60;161.80;;;;;;;11.03;100.00;98471.28;325432;30;4181;-77
2022/11/19 00:07:19;;;;;;;432.33;162.82;;;;;;;11.03;100.00;98476.53;322239;30;3493;-78
2022/11/19 00:07:29;;;;;;;434.33;166.30;;;;;;;11.00;100.00;98478.38;323176;30;1682;-78
2022/11/19 00:07:40;;;;;;;440.50;165.82;;;;;;;11.03;100.00;98476.53;321026;30;1944;-79
2022/11/19 00:07:51;;;;;;;439.40;164.33;;;;;;;11.03;100.00;98482.59;321079;30;961;-78
2022/11/19 00:08:02;;;;;;;434.02;160.13;;;;;;;11.03;100.00;98479.97;319912;30;1127;-78
2022/11/19 00:08:15;;;;;;;433.30;161.13;;;;;;;11.02;100.00;98474.84;322199;30;1789;-78
2022/11/19 00:08:27;;;;;;;425.20;156.40;;;;;;;11.02;100.00;98483.53;320993;30;2037;-78
2022/11/19 00:08:37;;;;;;;419.67;155.65;;;;;;;11.02;100.00;98478.28;319337;30;1436;-77
2022/11/19 00:08:48;;;;;;;424.38;156.68;;;;;;;11.02;100.00;98480.06;317008;30;1960;-77
2022/11/19 00:08:58;;;;;;;428.73;159.45;;;;;;;11.02;100.00;98480.06;320182;30;2246;-77
2022/11/19 00:09:13;;;;;;;433.77;159.67;;;;;;;10.99;100.00;98481.94;318687;31;1195;-77
2022/11/19 00:09:23;;;;;;;425.98;156.07;;;;;;;11.02;100.00;98480.06;315293;31;2415;-78
2022/11/19 00:09:33;;;;;;;428.10;155.50;;;;;;;11.00;100.00;98481.00;314856;31;3058;-77
2022/11/19 00:09:44;;;;;;;427.87;158.33;;;;;;;11.00;100.00;98488.84;313264;31;1827;-77
2022/11/19 00:09:56;;;;;;;432.27;160.90;;;;;;;10.99;100.00;98487.19;314648;31;1441;-77
2022/11/19 00:10:06;;;;;;;435.45;160.88;;;;;;;11.00;100.00;98483.63;310842;31;887;-77
2022/11/19 00:10:17;;;;;;;428.07;160.13;;;;;;;11.00;100.00;98488.84;313299;31;1858;-77
2022/11/19 00:10:27;;;;;;;426.30;157.93;;;;;;;11.00;100.00;98490.63;311534;31;2839;-78
2022/11/19 00:10:39;;;;;;;422.73;157.00;;;;;;;10.98;100.00;98489.88;312986;31;1600;-78
2022/11/19 00:10:49;;;;;;;427.80;155.18;;;;;;;10.96;100.00;98482.13;309721;31;1981;-77
2022/11/19 00:11:06;;;;;;;432.90;158.50;;;;;;;10.95;100.00;98488.28;309019;31;2735;-77
2022/11/19 00:12:55;;;;;;;427.45;162.10;;;;;;;10.98;100.00;98490.72;298424;33;3374;-77
2022/11/19 00:13:06;;;;;;;420.66;162.46;;;;;;;10.97;100.00;98483.81;293109;33;1332;-76
2022/11/19 00:13:16;;;;;;;418.80;164.50;;;;;;;10.97;100.00;98489.03;293408;33;3978;-77
2022/11/19 00:13:27;;;;;;;419.87;163.30;;;;;;;10.98;100.00;98484.66;292153;33;3931;-77
2022/11/19 00:13:38;;;;;;;425.13;165.05;;;;;;;10.97;100.00;98486.44;293225;33;871;-78
2022/11/19 00:13:48;;;;;;;430.13;163.40;;;;;;;10.98;100.00;98487.25;292333;33;4165;-78
2022/11/19 00:13:59;;;;;;;432.40;164.73;;;;;;;10.97;100.00;98482.97;292366;33;4735;-78
2022/11/19 00:14:11;;;;;;;429.20;165.60;;;;;;;10.98;100.00;98484.66;289643;34;3427;-77
2022/11/19 00:14:22;;;;;;;423.55;163.25;;;;;;;10.99;100.00;98488.94;291222;34;1342;-77
2022/11/19 00:14:33;;;;;;;424.23;160.63;;;;;;;10.99;100.00;98491.56;290588;33;3158;-78
2022/11/19 00:14:43;;;;;;;430.02;159.57;;;;;;;10.99;100.00;98491.56;290623;33;4077;-77
2022/11/19 00:14:54;;;;;;;431.87;161.30;;;;;;;10.99;100.00;98487.19;288138;34;4548;-77
2022/11/19 00:15:05;;;;;;;436.07;164.93;;;;;;;10.99;100.00;98489.78;286951;34;5917;-77
2022/11/19 00:15:16;;;;;;;441.40;167.88;;;;;;;11.00;100.00;98491.47;285381;34;5183;-78
2022/11/19 00:15:26;;;;;;;440.67;169.00;;;;;;;11.02;100.00;98495.78;283079;34;5970;-77
2022/11/19 00:15:36;;;;;;;442.55;167.98;;;;;;;11.00;100.00;98496.72;280850;35;3581;-78
2022/11/19 00:15:47;;;;;;;441.60;166.13;;;;;;;10.99;100.00;98495.03;278646;35;4803;-77
2022/11/19 00:16:04;;;;;;;444.80;168.73;;;;;;;11.02;100.00;98501.84;277165;35;5729;-78
2022/11/19 00:16:15;;;;;;;431.48;165.07;;;;;;;11.02;100.00;98496.63;278977;34;5925;-78
2022/11/19 00:16:25;;;;;;;425.00;162.73;;;;;;;11.04;100.00;98493.91;279176;35;4524;-77
2022/11/19 00:16:35;;;;;;;424.42;163.55;;;;;;;11.03;100.00;98498.31;279890;35;1542;-78
2022/11/19 00:16:46;;;;;;;424.40;164.97;;;;;;;11.04;100.00;98493.91;278657;35;5372;-78
2022/11/19 00:18:51;;;;;;;411.13;148.50;;;;;;;10.99;100.00;98491.56;2503716;27;20549;-78
2022/11/19 00:19:01;;;;;;;424.47;154.87;;;;;;;10.97;100.00;98483.81;353177;28;1518;-79
2022/11/19 00:19:12;;;;;;;425.17;154.10;;;;;;;10.95;100.00;98485.69;351928;28;1410;-78
2022/11/19 00:19:22;;;;;;;430.70;158.30;;;;;;;10.95;100.00;98490.91;350407;28;1321;-79
2022/11/19 00:19:33;;;;;;;432.15;159.05;;;;;;;10.96;100.00;98482.13;348986;28;804;-77
2022/11/19 00:19:43;;;;;;;436.10;160.03;;;;;;;10.96;100.00;98482.13;349103;28;895;-77
2022/11/19 00:19:53;;;;;;;432.67;160.65;;;;;;;10.96;100.00;98484.75;350439;28;1217;-78
2022/11/19 00:20:04;;;;;;;424.07;164.00;;;;;;;10.95;100.00;98485.69;348992;28;846;-78
2022/11/19 00:20:16;;;;;;;418.02;163.90;;;;;;;10.98;100.00;98484.66;348407;28;830;-78
2022/11/19 00:20:27;;;;;;;418.38;160.02;;;;;;;10.97;100.00;98483.81;347710;28;996;-78
2022/11/19 00:20:37;;;;;;;425.92;156.25;;;;;;;10.97;100.00;98483.81;348078;28;1761;-77
2022/11/19 00:20:49;;;;;;;427.03;154.60;;;;;;;10.99;100.00;98489.78;347192;28;1543;-77
2022/11/19 00:21:10;;;;;;;426.55;158.73;;;;;;;11.01;100.00;98494.94;348417;28;1408;-77
2022/11/19 00:21:21;;;;;;;426.60;160.75;;;;;;;11.00;100.00;98490.63;346149;28;1192;-78
2022/11/19 00:21:31;;;;;;;424.20;160.27;;;;;;;11.00;100.00;98493.25;344870;28;1338;-78
2022/11/19 00:21:42;;;;;;;427.77;161.80;;;;;;;10.99;100.00;98489.78;345050;28;863;-78
2022/11/19 00:21:52;;;;;;;426.70;159.45;;;;;;;11.00;100.00;98499.31;346142;28;1503;-78
2022/11/19 00:22:02;;;;;;;426.77;157.73;;;;;;;11.00;100.00;98499.31;347085;28;1227;-78
2022/11/19 00:22:13;;;;;;;419.33;156.07;;;;;;;11.00;100.00;98499.31;347029;28;1324;-79
2022/11/19 00:22:23;;;;;;;421.53;158.97;;;;;;;11.01;100.00;98494.94;348961;28;1441;-78
2022/11/19 00:22:33;;;;;;;419.30;161.10;;;;;;;10.99;100.00;98492.41;347447;28;1193;-78
2022/11/19 00:22:44;;;;;;;423.97;162.63;;;;;;;11.00;100.00;98494.09;348985;28;1069;-78
2022/11/19 00:22:56;;;;;;;423.27;161.67;;;;;;;10.99;100.00;98492.41;347032;28;1281;-78
2022/11/19 00:23:06;;;;;;;426.63;161.88;;;;;;;11.00;100.00;98494.09;346255;28;900;-77
2022/11/19 00:23:16;;;;;;;421.38;157.48;;;;;;;10.99;100.00;98495.03;349849;28;896;-78
2022/11/19 00:23:27;;;;;;;424.53;158.33;;;;;;;10.98;100.00;98490.72;347507;28;1164;-78
2022/11/19 00:23:37;;;;;;;422.87;158.53;;;;;;;10.98;100.00;98489.88;346486;28;1282;-78
2022/11/19 00:23:51;;;;;;;426.38;161.65;;;;;;;10.99;100.00;98492.41;346168;28;1327;-78
2022/11/19 00:24:01;;;;;;;423.15;157.55;;;;;;;10.98;100.00;98488.09;345639;28;4127;-78
2022/11/19 00:24:13;;;;;;;423.33;157.43;;;;;;;11.00;100.00;98498.50;343672;28;3375;-78
2022/11/19 00:24:27;;;;;;;420.52;155.15;;;;;;;11.00;100.00;98488.84;343545;28;1358;-78
2022/11/19 00:24:38;;;;;;;418.48;157.60;;;;;;;11.01;100.00;98497.56;343436;28;1769;-79
2022/11/19 00:24:48;;;;;;;421.55;157.73;;;;;;;11.01;100.00;98489.69;343172;28;1294;-78
2022/11/19 00:24:59;;;;;;;425.90;157.40;;;;;;;10.99;100.00;98496.81;344765;28;1181;-78
2022/11/19 00:25:10;;;;;;;423.80;155.97;;;;;;;10.99;100.00;98492.41;340801;28;1187;-78
2022/11/19 00:25:20;;;;;;;427.05;156.75;;;;;;;10.97;100.00;98504.75;339578;29;1239;-78
2022/11/19 00:25:31;;;;;;;429.58;157.10;;;;;;;10.96;100.00;98494.38;342322;28;1261;-78
2022/11/19 00:25:41;;;;;;;425.77;160.60;;;;;;;10.96;100.00;98503.06;343538;28;1233;-78
2022/11/19 00:25:51;;;;;;;416.93;160.03;;;;;;;10.95;100.00;98501.38;343280;28;1475;-78
2022/11/19 00:26:09;;;;;;;410.88;158.77;;;;;;;10.93;100.00;98507.63;340971;29;896;-78
2022/11/19 00:26:20;;;;;;;415.98;156.85;;;;;;;10.93;100.00;98492.78;341894;28;1423;-78
2022/11/19 00:26:30;;;;;;;421.90;160.60;;;;;;;10.93;100.00;98507.63;340704;28;1204;-79
2022/11/19 00:26:42;;;;;;;415.73;158.10;;;;;;;10.93;100.00;98498.00;336848;29;1335;-78
2022/11/19 00:26:52;;;;;;;414.75;158.57;;;;;;;10.94;100.00;98501.47;334301;29;1555;-78
2022/11/19 00:27:03;;;;;;;411.77;154.82;;;;;;;10.94;100.00;98499.69;333800;29;1665;-78
2022/11/19 00:27:13;;;;;;;419.40;157.90;;;;;;;10.95;100.00;98496.16;333909;29;1873;-78
2022/11/19 00:27:24;;;;;;;422.98;161.07;;;;;;;10.95;100.00;98501.38;331953;29;816;-78
2022/11/19 00:27:34;;;;;;;419.50;164.13;;;;;;;10.95;100.00;98496.16;331571;29;1911;-79
2022/11/19 00:27:44;;;;;;;417.60;161.60;;;;;;;10.95;100.00;98505.78;329356;29;1180;-79
2022/11/19 00:27:56;;;;;;;421.20;159.20;;;;;;;10.96;100.00;98502.22;329351;29;1189;-78
2022/11/19 00:28:06;;;;;;;420.17;156.52;;;;;;;10.96;100.00;98503.06;334196;29;1380;-78
2022/11/19 00:28:16;;;;;;;423.10;159.07;;;;;;;10.94;100.00;98491.84;334284;29;1326;-78
2022/11/19 00:28:27;;;;;;;417.00;160.23;;;;;;;10.95;100.00;98503.16;331321;29;1611;-78
2022/11/19 00:28:37;;;;;;;414.05;161.77;;;;;;;10.94;100.00;98499.69;329378;30;1348;-78
2022/11/19 00:28:49;;;;;;;413.30;159.13;;;;;;;10.94;100.00;98502.31;329212;29;1631;-78
2022/11/19 00:28:59;;;;;;;416.15;158.40;;;;;;;10.96;100.00;98497.81;327743;30;1871;-78
2022/11/19 00:29:11;;;;;;;411.05;153.68;;;;;;;10.97;100.00;98499.50;324407;29;2039;-78
2022/11/19 00:29:23;;;;;;;411.70;155.82;;;;;;;10.97;100.00;98509.97;330757;29;986;-78
2022/11/19 00:29:33;;;;;;;415.35;157.45;;;;;;;10.98;100.00;98509.06;333348;29;1471;-78
2022/11/19 00:29:44;;;;;;;413.10;156.55;;;;;;;10.98;100.00;98506.44;332083;29;1594;-78
2022/11/19 00:29:54;;;;;;;409.53;152.33;;;;;;;11.00;100.00;98501.09;330703;29;1188;-78
2022/11/19 00:30:06;;;;;;;409.65;150.60;;;;;;;11.00;100.00;98503.72;330585;29;1488;-78
2022/11/19 00:30:18;;;;;;;410.00;149.85;;;;;;;10.98;100.00;98501.19;331463;29;961;-78
2022/11/19 00:30:28;;;;;;;408.40;149.82;;;;;;;10.97;100.00;98498.66;327133;30;1435;-78
2022/11/19 00:30:38;;;;;;;409.52;149.32;;;;;;;10.98;100.00;98505.59;325735;30;1266;-79
2022/11/19 00:30:49;;;;;;;412.63;152.47;;;;;;;10.98;100.00;98505.59;325279;30;2135;-78
2022/11/19 00:31:01;;;;;;;408.80;156.10;;;;;;;10.97;100.00;98493.44;324463;30;2140;-78
2022/11/19 00:31:12;;;;;;;415.27;157.07;;;;;;;10.98;100.00;98509.06;324230;30;2431;-78
2022/11/19 00:31:23;;;;;;;409.52;153.45;;;;;;;10.99;100.00;98496.81;322298;30;954;-78
2022/11/19 00:31:33;;;;;;;420.00;157.53;;;;;;;10.98;100.00;98495.97;321377;30;2183;-78
2022/11/19 00:31:43;;;;;;;414.43;157.87;;;;;;;11.00;100.00;98494.09;319658;30;2037;-78
2022/11/19 00:31:54;;;;;;;415.60;161.07;;;;;;;11.00;100.00;98499.31;318641;30;1202;-79
2022/11/19 00:32:04;;;;;;;405.55;159.18;;;;;;;10.99;100.00;98497.66;317326;30;2226;-78
2022/11/19 00:32:16;;;;;;;407.80;158.43;;;;;;;11.02;100.00;98490.53;316745;31;1550;-78
2022/11/19 00:32:26;;;;;;;410.83;154.75;;;;;;;11.01;100.00;98489.69;318431;30;1190;-78
2022/11/19 00:32:37;;;;;;;419.83;153.35;;;;;;;11.00;100.00;98501.94;315240;31;1187;-78
2022/11/19 00:32:47;;;;;;;419.97;154.87;;;;;;;11.00;100.00;98494.09;317907;31;2072;-78
2022/11/19 00:32:58;;;;;;;417.73;156.93;;;;;;;11.00;100.00;98494.09;314879;31;2519;-77
2022/11/19 00:33:08;;;;;;;411.93;156.77;;;;;;;10.99;100.00;98495.03;315154;31;1496;-78
2022/11/19 00:33:18;;;;;;;412.17;158.73;;;;;;;11.00;100.00;98498.50;315005;30;3497;-76
2022/11/19 00:33:29;;;;;;;416.90;159.75;;;;;;;10.99;100.00;98496.81;310075;31;5644;-78
2022/11/19 00:33:40;;;;;;;423.55;162.02;;;;;;;10.97;100.00;98499.50;307359;32;1332;-78
2022/11/19 00:33:53;;;;;;;427.55;162.13;;;;;;;10.97;100.00;98498.66;315084;31;2003;-78
2022/11/19 00:34:04;;;;;;;421.80;162.95;;;;;;;10.92;100.00;98500.72;312308;31;2606;-78
2022/11/19 00:34:14;;;;;;;413.65;160.40;;;;;;;10.93;100.00;98502.41;312128;31;2943;-78
2022/11/19 00:34:25;;;;;;;419.47;161.57;;;;;;;10.93;100.00;98499.78;310506;31;1332;-78
2022/11/19 00:34:36;;;;;;;410.33;157.13;;;;;;;10.93;100.00;98502.41;311912;31;1062;-77
2022/11/19 00:34:46;;;;;;;408.38;155.63;;;;;;;10.92;100.00;98498.94;309274;31;2035;-77
2022/11/19 00:34:56;;;;;;;406.77;156.77;;;;;;;10.93;100.00;98513.72;306903;31;2959;-77
2022/11/19 00:35:07;;;;;;;415.03;159.73;;;;;;;10.92;100.00;98501.56;305288;32;1337;-77
2022/11/19 00:35:18;;;;;;;420.75;162.32;;;;;;;10.95;100.00;98506.63;305129;32;3823;-78
2022/11/19 00:35:28;;;;;;;426.30;161.15;;;;;;;10.95;100.00;98504.00;303594;32;3980;-78
2022/11/19 00:35:39;;;;;;;430.57;160.83;;;;;;;10.96;100.00;98507.47;301092;32;951;-77
2022/11/19 00:35:49;;;;;;;427.13;159.50;;;;;;;10.95;100.00;98509.22;299008;32;4260;-78
2022/11/19 00:36:00;;;;;;;426.10;160.15;;;;;;;10.96;100.00;98505.69;297317;32;4069;-77
2022/11/19 00:36:12;;;;;;;424.97;161.20;;;;;;;10.97;100.00;98503.91;296170;33;3356;-78
2022/11/19 00:36:22;;;;;;;425.27;163.07;;;;;;;10.97;100.00;98504.75;295041;33;1477;-78
2022/11/19 00:36:32;;;;;;;422.60;161.73;;;;;;;10.98;100.00;98509.06;293918;33;3633;-78
2022/11/19 00:36:43;;;;;;;419.45;158.75;;;;;;;10.98;100.00;98505.59;293470;33;3175;-77
2022/11/19 00:36:53;;;;;;;421.23;155.90;;;;;;;10.97;100.00;98504.75;295061;33;1228;-77
2022/11/19 00:37:04;;;;;;;418.38;154.10;;;;;;;10.97;100.00;98509.97;294014;33;2889;-78
2022/11/19 00:37:14;;;;;;;417.87;159.03;;;;;;;10.98;100.00;98510.81;290358;33;3879;-78
2022/11/19 00:37:25;;;;;;;415.08;159.88;;;;;;;10.98;100.00;98511.66;288345;34;1354;-78
2022/11/19 00:37:36;;;;;;;420.75;160.70;;;;;;;10.98;100.00;98511.66;286544;34;884;-80
2022/11/19 00:37:46;;;;;;;420.37;159.40;;;;;;;10.98;100.00;98511.66;281229;34;6709;-78
2022/11/19 00:37:56;;;;;;;414.85;158.50;;;;;;;10.97;100.00;98509.13;277796;34;6134;-78
2022/11/19 00:38:07;;;;;;;412.73;158.90;;;;;;;10.97;100.00;98509.13;280955;35;1474;-78
2022/11/19 00:38:17;;;;;;;412.52;160.48;;;;;;;10.97;100.00;98515.22;278303;35;5942;-78
2022/11/19 00:38:28;;;;;;;413.60;161.43;;;;;;;10.96;100.00;98508.31;277766;35;4359;-78
2022/11/19 00:38:38;;;;;;;412.48;164.70;;;;;;;10.98;100.00;98510.81;279306;35;1032;-78
2022/11/19 00:38:49;;;;;;;414.60;166.53;;;;;;;10.98;100.00;98522.13;273970;35;4938;-78
2022/11/19 00:40:32;;;;;;;408.06;147.96;;;;;;;11.00;100.00;98530.75;2503545;27;20487;-78
2022/11/19 00:40:42;;;;;;;410.97;150.27;;;;;;;10.97;100.00;98528.31;353976;27;1493;-78
2022/11/19 00:40:53;;;;;;;414.35;157.07;;;;;;;10.97;100.00;98530.94;350823;28;933;-77
2022/11/19 00:41:03;;;;;;;415.63;160.47;;;;;;;10.95;100.00;98531.94;348589;28;789;-77
2022/11/19 00:41:14;;;;;;;411.15;157.57;;;;;;;10.94;100.00;98531.09;347558;28;852;-77
2022/11/19 00:41:24;;;;;;;403.23;154.40;;;;;;;10.94;100.00;98536.34;346231;28;1022;-77
2022/11/19 00:41:35;;;;;;;411.92;153.20;;;;;;;10.93;100.00;98534.66;345950;28;907;-77
2022/11/19 00:41:45;;;;;;;417.50;154.73;;;;;;;10.92;100.00;98532.97;347513;28;1219;-77
2022/11/19 00:41:56;;;;;;;417.05;152.50;;;;;;;10.92;100.00;98527.75;347678;28;954;-77
2022/11/19 00:42:06;;;;;;;410.73;154.97;;;;;;;10.93;100.00;98526.81;349103;28;1322;-80
2022/11/19 00:42:16;;;;;;;411.98;155.20;;;;;;;10.91;100.00;98518.19;347544;28;1321;-77
2022/11/19 00:42:27;;;;;;;410.57;155.37;;;;;;;10.92;100.00;98527.75;347591;28;4034;-77
2022/11/19 00:42:38;;;;;;;417.00;156.32;;;;;;;10.93;100.00;98529.44;346668;28;3288;-77
2022/11/19 00:43:47;;;;;;;405.35;149.57;;;;;;;10.92;100.00;98532.97;346341;28;683;-77
2022/11/19 00:43:57;;;;;;;407.67;151.83;;;;;;;10.94;100.00;98530.28;348824;28;1397;-78
2022/11/19 00:44:09;;;;;;;401.95;156.70;;;;;;;10.94;100.00;98536.34;347555;28;1346;-78
2022/11/19 00:44:19;;;;;;;406.45;160.10;;;;;;;10.94;100.00;98531.09;347892;28;1566;-78
2022/11/19 00:44:31;;;;;;;406.77;153.80;;;;;;;10.94;100.00;98536.34;346414;28;1005;-78
2022/11/19 00:44:42;;;;;;;411.83;151.07;;;;;;;10.94;100.00;98538.97;346685;28;1279;-78
2022/11/19 00:44:52;;;;;;;410.65;150.43;;;;;;;10.93;100.00;98542.50;348536;28;1287;-78
2022/11/19 00:45:04;;;;;;;410.77;154.60;;;;;;;10.92;100.00;98538.22;343480;28;1216;-78
2022/11/19 00:45:14;;;;;;;409.85;155.23;;;;;;;10.93;100.00;98536.44;348699;28;1287;-78
2022/11/19 00:45:24;;;;;;;410.73;153.82;;;;;;;10.91;100.00;98533.91;349083;28;888;-77
2022/11/19 00:45:36;;;;;;;407.37;153.00;;;;;;;10.91;100.00;98547.00;347629;28;1251;-77
2022/11/19 00:45:47;;;;;;;406.63;153.73;;;;;;;10.90;100.00;98537.47;346819;28;2121;-77
2022/11/19 00:45:58;;;;;;;404.13;155.32;;;;;;;10.89;100.00;98532.31;347496;28;1314;-76
2022/11/19 00:46:08;;;;;;;413.27;156.82;;;;;;;10.87;100.00;98535.03;348934;28;1155;-77
2022/11/19 00:46:23;;;;;;;416.37;157.00;;;;;;;10.88;100.00;98544.56;344137;28;864;-77
2022/11/19 00:46:34;;;;;;;414.90;157.20;;;;;;;10.88;100.00;98541.09;343662;28;1288;-77
2022/11/19 00:46:44;;;;;;;406.85;156.07;;;;;;;10.86;100.00;98538.56;344346;28;1549;-77
2022/11/19 00:46:56;;;;;;;406.27;159.73;;;;;;;10.83;100.00;98536.13;343211;28;1403;-77
2022/11/19 00:47:07;;;;;;;406.30;159.70;;;;;;;10.84;100.00;98535.19;344925;28;1414;-77
2022/11/19 00:47:17;;;;;;;407.27;158.20;;;;;;;10.86;100.00;98542.97;346395;28;1428;-77
2022/11/19 00:47:27;;;;;;;405.30;157.23;;;;;;;10.85;100.00;98536.03;344922;28;1329;-79
2022/11/19 00:47:38;;;;;;;409.13;157.52;;;;;;;10.85;100.00;98541.28;345016;28;835;-78
2022/11/19 00:47:48;;;;;;;409.10;157.90;;;;;;;10.84;100.00;98535.19;343580;28;1034;-78
2022/11/19 00:47:58;;;;;;;410.97;157.20;;;;;;;10.84;100.00;98540.44;346190;28;1324;-78
2022/11/19 00:48:09;;;;;;;410.33;154.00;;;;;;;10.86;100.00;98538.56;344753;28;1286;-78
2022/11/19 00:48:19;;;;;;;407.50;152.40;;;;;;;10.87;100.00;98534.19;342266;28;1205;-78
2022/11/19 00:48:31;;;;;;;404.50;152.88;;;;;;;10.87;100.00;98540.25;343297;28;1450;-78
2022/11/19 00:48:42;;;;;;;400.83;156.40;;;;;;;10.86;100.00;98541.19;342089;28;1269;-78
2022/11/19 00:48:53;;;;;;;401.60;155.47;;;;;;;10.86;100.00;98532.50;341430;28;1384;-77
2022/11/19 00:49:04;;;;;;;401.68;155.64;;;;;;;10.85;100.00;98539.50;346173;28;1495;-77
2022/11/19 00:49:15;;;;;;;402.85;154.20;;;;;;;10.88;100.00;98541.09;344643;28;1529;-77
2022/11/19 00:49:25;;;;;;;404.50;153.30;;;;;;;10.86;100.00;98535.09;341337;28;1373;-78
2022/11/19 00:49:36;;;;;;;405.07;151.90;;;;;;;10.86;100.00;98543.81;340977;29;767;-77
2022/11/19 00:49:47;;;;;;;403.87;151.17;;;;;;;10.85;100.00;98542.13;338257;29;1322;-77
2022/11/19 00:49:57;;;;;;;402.88;153.43;;;;;;;10.84;100.00;98540.44;341447;28;1507;-77
2022/11/19 00:50:09;;;;;;;406.93;154.03;;;;;;;10.84;100.00;98540.44;342261;28;1394;-77
2022/11/19 00:50:19;;;;;;;408.52;152.75;;;;;;;10.85;100.00;98536.88;339516;29;1305;-78
2022/11/19 00:50:30;;;;;;;410.73;154.13;;;;;;;10.85;100.00;98539.50;335742;29;1441;-77
2022/11/19 00:50:41;;;;;;;415.08;158.27;;;;;;;10.85;100.00;98538.66;335055;29;1214;-77
2022/11/19 00:50:51;;;;;;;410.73;159.20;;;;;;;10.87;100.00;98540.25;337975;29;1700;-78
2022/11/19 00:51:02;;;;;;;411.03;155.57;;;;;;;10.87;100.00;98542.88;336900;29;1215;-77
2022/11/19 00:51:12;;;;;;;405.98;155.52;;;;;;;10.89;100.00;98543.63;339652;28;1762;-77
2022/11/19 00:51:24;;;;;;;410.53;157.53;;;;;;;10.90;100.00;98539.22;335459;29;2159;-77
2022/11/19 00:51:36;;;;;;;411.27;156.68;;;;;;;10.89;100.00;98537.56;334076;29;3488;-77
2022/11/19 00:51:46;;;;;;;411.30;152.95;;;;;;;10.90;100.00;98540.06;330317;29;3190;-77
2022/11/19 00:51:56;;;;;;;405.07;154.03;;;;;;;10.92;100.00;98539.97;333781;29;3042;-77
2022/11/19 00:52:07;;;;;;;407.23;157.50;;;;;;;10.91;100.00;98541.75;334030;29;2925;-77
2022/11/19 00:52:17;;;;;;;404.20;158.93;;;;;;;10.92;100.00;98535.59;332358;29;3452;-78
2022/11/19 00:52:28;;;;;;;406.55;161.07;;;;;;;10.93;100.00;98539.91;331327;29;1940;-78
2022/11/19 00:52:38;;;;;;;409.93;164.10;;;;;;;10.93;100.00;98544.28;332532;29;1864;-77
2022/11/19 00:52:48;;;;;;;412.58;161.15;;;;;;;10.91;100.00;98536.53;331975;29;922;-78
2022/11/19 00:52:59;;;;;;;413.87;156.70;;;;;;;10.92;100.00;98543.44;330558;29;1626;-78
2022/11/19 00:53:09;;;;;;;415.47;156.50;;;;;;;10.94;100.00;98549.44;329781;29;2016;-78
2022/11/19 00:53:19;;;;;;;410.98;158.35;;;;;;;10.93;100.00;98544.28;327063;30;899;-78
2022/11/19 00:53:30;;;;;;;411.13;160.57;;;;;;;10.92;100.00;98546.06;322634;30;2184;-78
2022/11/19 00:53:40;;;;;;;405.13;156.38;;;;;;;10.93;100.00;98550.38;328295;29;2341;-77
2022/11/19 00:53:51;;;;;;;404.90;155.10;;;;;;;10.94;100.00;98545.97;330604;29;1317;-77
2022/11/19 00:54:01;;;;;;;402.23;152.70;;;;;;;10.93;100.00;98550.38;325764;30;880;-77
2022/11/19 00:54:11;;;;;;;402.80;151.60;;;;;;;10.92;100.00;98556.53;327855;30;1959;-77
2022/11/19 00:54:22;;;;;;;404.63;154.80;;;;;;;10.92;100.00;98559.16;326763;30;1928;-77
2022/11/19 00:54:32;;;;;;;406.13;155.80;;;;;;;10.91;100.00;98552.22;325791;30;847;-77
2022/11/19 00:54:43;;;;;;;405.17;156.23;;;;;;;10.90;100.00;98555.78;323245;30;2539;-77
2022/11/19 00:54:53;;;;;;;400.92;151.82;;;;;;;10.89;100.00;98559.34;323183;30;2355;-77
2022/11/19 00:55:04;;;;;;;401.73;152.60;;;;;;;10.88;100.00;98551.56;318091;31;1282;-77
2022/11/19 00:55:14;;;;;;;405.95;156.68;;;;;;;10.88;100.00;98556.81;318773;30;2010;-77
2022/11/19 00:55:25;;;;;;;403.00;159.27;;;;;;;10.88;100.00;98556.81;320493;30;2259;-78
2022/11/19 00:55:36;;;;;;;396.73;156.83;;;;;;;10.86;100.00;98549.03;320856;30;2020;-77
2022/11/19 00:55:47;;;;;;;395.08;153.52;;;;;;;10.84;100.00;98556.13;319589;30;1962;-76
2022/11/19 00:56:04;;;;;;;399.33;152.33;;;;;;;10.85;100.00;98552.59;318693;30;2439;-77